sensor_id;sensor_type;location;lat;lon;timestamp;pressure;altitude;pressure_sealevel;temperature;humidity
37238;BME280;23129;49.662;8.448;2023-05-29T00:00:05;100758.38;;;18.18;44.53
37238;BME280;23129;49.662;8.448;2023-05-29T00:02:40;100765.09;;;18.25;44.56
37238;BME280;23129;49.662;8.448;2023-05-29T00:05:12;100766.94;;;18.07;44.81
37238;BME280;23129;49.662;8.448;2023-05-29T00:07:41;100763.66;;;18.02;44.89
37238;BME280;23129;49.662;8.448;2023-05-29T00:10:11;100765.53;;;18.00;45.48
37238;BME280;23129;49.662;8.448;2023-05-29T00:12:40;100767.50;;;17.96;45.20
37238;BME280;23129;49.662;8.448;2023-05-29T00:15:09;100771.19;;;17.94;45.42
37238;BME280;23129;49.662;8.448;2023-05-29T00:17:40;100770.41;;;17.92;45.68
37238;BME280;23129;49.662;8.448;2023-05-29T00:20:12;100768.84;;;17.88;46.01
37238;BME280;23129;49.662;8.448;2023-05-29T00:22:41;100770.88;;;17.83;46.00
37238;BME280;23129;49.662;8.448;2023-05-29T00:25:10;100772.00;;;17.78;46.21
37238;BME280;23129;49.662;8.448;2023-05-29T00:27:38;100763.38;;;17.73;46.35
37238;BME280;23129;49.662;8.448;2023-05-29T00:30:08;100767.13;;;17.69;46.30
37238;BME280;23129;49.662;8.448;2023-05-29T00:32:37;100764.81;;;17.63;46.64
37238;BME280;23129;49.662;8.448;2023-05-29T00:35:08;100761.53;;;17.58;46.90
37238;BME280;23129;49.662;8.448;2023-05-29T00:37:37;100770.75;;;17.51;47.08
37238;BME280;23129;49.662;8.448;2023-05-29T00:40:07;100764.81;;;17.46;47.26
37238;BME280;23129;49.662;8.448;2023-05-29T00:42:36;100769.59;;;17.39;47.32
37238;BME280;23129;49.662;8.448;2023-05-29T00:45:06;100755.69;;;17.34;47.57
37238;BME280;23129;49.662;8.448;2023-05-29T00:47:35;100765.59;;;17.30;47.69
37238;BME280;23129;49.662;8.448;2023-05-29T00:50:07;100765.75;;;17.27;48.06
37238;BME280;23129;49.662;8.448;2023-05-29T00:52:37;100760.63;;;17.24;48.12
37238;BME280;23129;49.662;8.448;2023-05-29T00:55:07;100762.47;;;17.22;48.10
37238;BME280;23129;49.662;8.448;2023-05-29T00:57:36;100752.97;;;17.18;48.29
37238;BME280;23129;49.662;8.448;2023-05-29T01:00:06;100761.06;;;17.15;48.29
37238;BME280;23129;49.662;8.448;2023-05-29T01:02:38;100757.72;;;17.11;48.73
37238;BME280;23129;49.662;8.448;2023-05-29T01:05:09;100755.28;;;17.07;48.69
37238;BME280;23129;49.662;8.448;2023-05-29T01:07:38;100758.25;;;17.01;48.81
37238;BME280;23129;49.662;8.448;2023-05-29T01:10:08;100749.50;;;16.99;49.20
37238;BME280;23129;49.662;8.448;2023-05-29T01:12:44;100758.41;;;16.98;48.98
37238;BME280;23129;49.662;8.448;2023-05-29T01:15:22;100754.09;;;16.95;49.19
37238;BME280;23129;49.662;8.448;2023-05-29T01:18:08;100750.75;;;16.92;49.20
37238;BME280;23129;49.662;8.448;2023-05-29T01:20:47;100752.00;;;16.84;49.81
37238;BME280;23129;49.662;8.448;2023-05-29T01:23:38;100753.84;;;16.82;49.90
37238;BME280;23129;49.662;8.448;2023-05-29T01:26:45;100750.56;;;16.77;49.96
37238;BME280;23129;49.662;8.448;2023-05-29T01:29:19;100758.00;;;16.69;50.17
37238;BME280;23129;49.662;8.448;2023-05-29T01:31:50;100757.72;;;16.75;49.81
37238;BME280;23129;49.662;8.448;2023-05-29T01:34:21;100751.44;;;16.59;50.44
37238;BME280;23129;49.662;8.448;2023-05-29T01:36:49;100749.94;;;16.53;50.42
37238;BME280;23129;49.662;8.448;2023-05-29T01:39:18;100744.88;;;16.49;50.65
37238;BME280;23129;49.662;8.448;2023-05-29T01:41:50;100743.22;;;16.46;51.01
37238;BME280;23129;49.662;8.448;2023-05-29T01:44:21;100750.47;;;16.42;51.21
37238;BME280;23129;49.662;8.448;2023-05-29T01:46:51;100746.16;;;16.40;51.25
37238;BME280;23129;49.662;8.448;2023-05-29T01:49:21;100741.00;;;16.37;51.32
37238;BME280;23129;49.662;8.448;2023-05-29T01:51:50;100742.00;;;16.34;51.34
37238;BME280;23129;49.662;8.448;2023-05-29T01:54:19;100750.94;;;16.32;51.58
37238;BME280;23129;49.662;8.448;2023-05-29T01:56:49;100750.09;;;16.31;51.70
37238;BME280;23129;49.662;8.448;2023-05-29T01:59:19;100748.50;;;16.27;51.90
37238;BME280;23129;49.662;8.448;2023-05-29T02:01:49;100751.28;;;16.24;52.10
37238;BME280;23129;49.662;8.448;2023-05-29T02:04:18;100737.28;;;16.22;51.96
37238;BME280;23129;49.662;8.448;2023-05-29T02:06:47;100741.78;;;16.20;52.17
37238;BME280;23129;49.662;8.448;2023-05-29T02:09:16;100748.03;;;16.19;52.20
37238;BME280;23129;49.662;8.448;2023-05-29T02:11:45;100743.72;;;16.16;52.37
37238;BME280;23129;49.662;8.448;2023-05-29T02:14:15;100746.44;;;16.15;52.45
37238;BME280;23129;49.662;8.448;2023-05-29T02:16:44;100746.56;;;16.12;52.39
37238;BME280;23129;49.662;8.448;2023-05-29T02:19:12;100749.34;;;16.09;52.76
37238;BME280;23129;49.662;8.448;2023-05-29T02:21:41;100748.66;;;16.05;52.85
37238;BME280;23129;49.662;8.448;2023-05-29T02:24:10;100757.56;;;16.03;53.00
37238;BME280;23129;49.662;8.448;2023-05-29T02:26:40;100752.44;;;16.00;53.07
37238;BME280;23129;49.662;8.448;2023-05-29T02:29:09;100754.31;;;15.97;53.08
37238;BME280;23129;49.662;8.448;2023-05-29T02:31:39;100750.84;;;15.95;53.25
37238;BME280;23129;49.662;8.448;2023-05-29T02:34:08;100758.09;;;15.92;53.42
37238;BME280;23129;49.662;8.448;2023-05-29T02:36:36;100748.50;;;15.89;53.42
37238;BME280;23129;49.662;8.448;2023-05-29T02:39:05;100750.41;;;15.86;53.58
37238;BME280;23129;49.662;8.448;2023-05-29T02:41:34;100759.41;;;15.82;53.60
37238;BME280;23129;49.662;8.448;2023-05-29T02:44:03;100756.13;;;15.77;53.77
37238;BME280;23129;49.662;8.448;2023-05-29T02:46:31;100762.53;;;15.71;53.93
37238;BME280;23129;49.662;8.448;2023-05-29T02:49:01;100760.91;;;15.67;54.23
37238;BME280;23129;49.662;8.448;2023-05-29T02:51:30;100757.63;;;15.62;54.29
37238;BME280;23129;49.662;8.448;2023-05-29T02:53:59;100760.47;;;15.57;54.40
37238;BME280;23129;49.662;8.448;2023-05-29T02:56:27;100753.50;;;15.55;54.44
37238;BME280;23129;49.662;8.448;2023-05-29T02:58:57;100756.28;;;15.51;54.55
37238;BME280;23129;49.662;8.448;2023-05-29T03:01:25;100755.56;;;15.48;54.76
37238;BME280;23129;49.662;8.448;2023-05-29T03:03:55;100759.28;;;15.44;54.93
37238;BME280;23129;49.662;8.448;2023-05-29T03:06:25;100758.53;;;15.40;54.97
37238;BME280;23129;49.662;8.448;2023-05-29T03:08:53;100757.88;;;15.35;54.99
37238;BME280;23129;49.662;8.448;2023-05-29T03:11:23;100765.94;;;15.32;55.15
37238;BME280;23129;49.662;8.448;2023-05-29T03:13:52;100753.78;;;15.28;55.30
37238;BME280;23129;49.662;8.448;2023-05-29T03:16:21;100760.03;;;15.25;55.26
37238;BME280;23129;49.662;8.448;2023-05-29T03:18:49;100768.19;;;15.21;55.39
37238;BME280;23129;49.662;8.448;2023-05-29T03:21:19;100764.81;;;15.17;55.53
37238;BME280;23129;49.662;8.448;2023-05-29T03:23:49;100769.28;;;15.15;55.56
37238;BME280;23129;49.662;8.448;2023-05-29T03:26:19;100762.41;;;15.11;55.64
37238;BME280;23129;49.662;8.448;2023-05-29T03:28:49;100767.84;;;15.08;55.61
37238;BME280;23129;49.662;8.448;2023-05-29T03:31:18;100767.06;;;15.04;55.96
37238;BME280;23129;49.662;8.448;2023-05-29T03:33:48;100775.94;;;15.03;56.10
37238;BME280;23129;49.662;8.448;2023-05-29T03:36:37;100775.22;;;15.00;56.11
37238;BME280;23129;49.662;8.448;2023-05-29T03:39:08;100764.63;;;15.00;56.35
37238;BME280;23129;49.662;8.448;2023-05-29T03:41:37;100767.31;;;14.98;56.32
37238;BME280;23129;49.662;8.448;2023-05-29T03:44:06;100769.06;;;14.99;56.45
37238;BME280;23129;49.662;8.448;2023-05-29T03:46:35;100779.63;;;14.99;56.54
37238;BME280;23129;49.662;8.448;2023-05-29T03:49:04;100781.34;;;15.00;56.50
37238;BME280;23129;49.662;8.448;2023-05-29T03:51:35;100777.78;;;15.01;56.64
37238;BME280;23129;49.662;8.448;2023-05-29T03:54:05;100775.13;;;15.01;56.65
37238;BME280;23129;49.662;8.448;2023-05-29T03:56:35;100786.59;;;15.02;56.69
37238;BME280;23129;49.662;8.448;2023-05-29T03:59:04;100783.06;;;15.01;56.78
37238;BME280;23129;49.662;8.448;2023-05-29T04:01:33;100790.06;;;15.02;56.79
37238;BME280;23129;49.662;8.448;2023-05-29T04:04:02;100797.06;;;15.03;56.81
37238;BME280;23129;49.662;8.448;2023-05-29T04:06:30;100804.06;;;15.04;56.92
37238;BME280;23129;49.662;8.448;2023-05-29T04:08:59;100811.09;;;15.05;57.01
37238;BME280;23129;49.662;8.448;2023-05-29T04:11:29;100808.25;;;15.10;56.89
37238;BME280;23129;49.662;8.448;2023-05-29T04:14:02;100822.38;;;15.09;56.94
37238;BME280;23129;49.662;8.448;2023-05-29T04:16:31;100818.81;;;15.10;57.04
37238;BME280;23129;49.662;8.448;2023-05-29T04:19:00;100822.34;;;15.11;57.24
37238;BME280;23129;49.662;8.448;2023-05-29T04:21:31;100835.44;;;15.14;57.23
37238;BME280;23129;49.662;8.448;2023-05-29T04:24:02;100832.81;;;15.12;57.33
37238;BME280;23129;49.662;8.448;2023-05-29T04:26:30;100829.34;;;15.12;57.40
37238;BME280;23129;49.662;8.448;2023-05-29T04:29:02;100833.69;;;15.13;57.59
37238;BME280;23129;49.662;8.448;2023-05-29T04:31:32;100838.97;;;15.13;57.60
37238;BME280;23129;49.662;8.448;2023-05-29T04:34:02;100840.72;;;15.14;57.81
37238;BME280;23129;49.662;8.448;2023-05-29T04:36:31;100842.53;;;15.12;57.83
37238;BME280;23129;49.662;8.448;2023-05-29T04:39:07;100840.72;;;15.14;57.99
37238;BME280;23129;49.662;8.448;2023-05-29T04:41:36;100853.00;;;15.15;58.28
37238;BME280;23129;49.662;8.448;2023-05-29T04:44:09;100851.19;;;15.15;58.58
37238;BME280;23129;49.662;8.448;2023-05-29T04:46:44;100857.28;;;15.17;58.63
37238;BME280;23129;49.662;8.448;2023-05-29T04:49:16;100863.34;;;15.19;58.70
37238;BME280;23129;49.662;8.448;2023-05-29T04:51:44;100859.72;;;15.22;58.84
37238;BME280;23129;49.662;8.448;2023-05-29T04:54:13;100866.75;;;15.23;58.92
37238;BME280;23129;49.662;8.448;2023-05-29T04:56:44;100872.78;;;15.26;58.88
37238;BME280;23129;49.662;8.448;2023-05-29T04:59:15;100875.22;;;15.31;59.21
37238;BME280;23129;49.662;8.448;2023-05-29T05:01:45;100876.97;;;15.32;59.25
37238;BME280;23129;49.662;8.448;2023-05-29T05:04:15;100877.72;;;15.34;59.25
37238;BME280;23129;49.662;8.448;2023-05-29T05:06:43;100888.25;;;15.36;59.40
37238;BME280;23129;49.662;8.448;2023-05-29T05:09:12;100887.19;;;15.40;59.46
37238;BME280;23129;49.662;8.448;2023-05-29T05:11:41;100885.28;;;15.43;59.59
37238;BME280;23129;49.662;8.448;2023-05-29T05:14:10;100879.94;;;15.45;59.71
37238;BME280;23129;49.662;8.448;2023-05-29T05:16:40;100885.97;;;15.48;59.76
37238;BME280;23129;49.662;8.448;2023-05-29T05:19:10;100894.72;;;15.50;59.87
37238;BME280;23129;49.662;8.448;2023-05-29T05:21:41;100889.28;;;15.53;59.83
37238;BME280;23129;49.662;8.448;2023-05-29T05:24:10;100898.81;;;15.58;59.95
37238;BME280;23129;49.662;8.448;2023-05-29T05:26:39;100893.38;;;15.61;59.86
37238;BME280;23129;49.662;8.448;2023-05-29T05:29:08;100885.28;;;15.65;59.89
37238;BME280;23129;49.662;8.448;2023-05-29T05:31:40;100886.91;;;15.69;60.13
37238;BME280;23129;49.662;8.448;2023-05-29T05:34:09;100889.34;;;15.74;60.14
37238;BME280;23129;49.662;8.448;2023-05-29T05:36:39;100892.66;;;15.79;60.08
37238;BME280;23129;49.662;8.448;2023-05-29T05:39:12;100900.28;;;15.87;59.96
37238;BME280;23129;49.662;8.448;2023-05-29T05:41:45;100894.81;;;15.91;60.05
37238;BME280;23129;49.662;8.448;2023-05-29T05:44:20;100900.72;;;15.96;60.05
37238;BME280;23129;49.662;8.448;2023-05-29T05:47:00;100898.75;;;16.02;60.15
37238;BME280;23129;49.662;8.448;2023-05-29T05:49:29;100902.06;;;16.07;60.19
37238;BME280;23129;49.662;8.448;2023-05-29T05:51:57;100911.53;;;16.12;60.30
37238;BME280;23129;49.662;8.448;2023-05-29T05:54:26;100908.66;;;16.17;60.20
37238;BME280;23129;49.662;8.448;2023-05-29T05:56:55;100911.84;;;16.25;60.04
37238;BME280;23129;49.662;8.448;2023-05-29T05:59:24;100917.72;;;16.32;59.98
37238;BME280;23129;49.662;8.448;2023-05-29T06:01:53;100920.97;;;16.38;60.12
37238;BME280;23129;49.662;8.448;2023-05-29T06:04:23;100918.75;;;16.48;59.79
37238;BME280;23129;49.662;8.448;2023-05-29T06:06:52;100913.22;;;16.54;59.96
37238;BME280;23129;49.662;8.448;2023-05-29T06:09:21;100908.50;;;16.61;59.79
37238;BME280;23129;49.662;8.448;2023-05-29T06:11:50;100906.47;;;16.66;59.83
37238;BME280;23129;49.662;8.448;2023-05-29T06:14:20;100918.53;;;16.73;59.81
37238;BME280;23129;49.662;8.448;2023-05-29T06:16:49;100909.53;;;16.77;59.67
37238;BME280;23129;49.662;8.448;2023-05-29T06:19:18;100917.28;;;16.82;59.92
37238;BME280;23129;49.662;8.448;2023-05-29T06:21:55;100921.28;;;16.91;59.96
37238;BME280;23129;49.662;8.448;2023-05-29T06:24:26;100916.56;;;16.97;59.63
37238;BME280;23129;49.662;8.448;2023-05-29T06:26:56;100919.63;;;17.07;59.49
37238;BME280;23129;49.662;8.448;2023-05-29T06:29:25;100916.63;;;17.15;59.14
37238;BME280;23129;49.662;8.448;2023-05-29T06:31:54;100922.41;;;17.23;59.21
37238;BME280;23129;49.662;8.448;2023-05-29T06:34:22;100918.59;;;17.28;59.13
37238;BME280;23129;49.662;8.448;2023-05-29T06:36:52;100924.53;;;17.33;59.12
37238;BME280;23129;49.662;8.448;2023-05-29T06:39:21;100927.75;;;17.40;58.60
37238;BME280;23129;49.662;8.448;2023-05-29T06:41:50;100923.09;;;17.45;58.83
37238;BME280;23129;49.662;8.448;2023-05-29T06:44:20;100927.25;;;17.51;58.34
37238;BME280;23129;49.662;8.448;2023-05-29T06:46:48;100920.78;;;17.56;58.42
37238;BME280;23129;49.662;8.448;2023-05-29T06:49:17;100914.31;;;17.62;58.45
37238;BME280;23129;49.662;8.448;2023-05-29T06:51:46;100919.31;;;17.68;58.47
37238;BME280;23129;49.662;8.448;2023-05-29T06:54:26;100919.66;;;17.79;58.01
37238;BME280;23129;49.662;8.448;2023-05-29T06:56:56;100916.69;;;17.86;58.13
37238;BME280;23129;49.662;8.448;2023-05-29T06:59:37;100918.91;;;17.95;57.83
37238;BME280;23129;49.662;8.448;2023-05-29T07:02:07;100928.09;;;18.05;57.55
37238;BME280;23129;49.662;8.448;2023-05-29T07:04:37;100911.84;;;18.11;57.45
37238;BME280;23129;49.662;8.448;2023-05-29T07:07:05;100930.22;;;18.16;57.39
37238;BME280;23129;49.662;8.448;2023-05-29T07:09:37;100930.75;;;18.22;57.13
37238;BME280;23129;49.662;8.448;2023-05-29T07:12:06;100932.97;;;18.30;56.89
37238;BME280;23129;49.662;8.448;2023-05-29T07:14:35;100930.72;;;18.40;56.73
37238;BME280;23129;49.662;8.448;2023-05-29T07:17:04;100931.84;;;18.52;56.60
37238;BME280;23129;49.662;8.448;2023-05-29T07:19:33;100930.34;;;18.63;56.40
37238;BME280;23129;49.662;8.448;2023-05-29T07:22:04;100927.22;;;18.73;55.76
37238;BME280;23129;49.662;8.448;2023-05-29T07:24:33;100927.66;;;18.81;55.62
37238;BME280;23129;49.662;8.448;2023-05-29T07:27:05;100930.59;;;18.92;55.58
37238;BME280;23129;49.662;8.448;2023-05-29T07:29:34;100933.38;;;19.06;55.19
37238;BME280;23129;49.662;8.448;2023-05-29T07:32:03;100932.16;;;19.28;54.67
37238;BME280;23129;49.662;8.448;2023-05-29T07:34:32;100930.75;;;19.52;54.57
37238;BME280;23129;49.662;8.448;2023-05-29T07:37:03;100929.22;;;19.94;54.01
37238;BME280;23129;49.662;8.448;2023-05-29T07:39:34;100936.59;;;20.64;52.88
37238;BME280;23129;49.662;8.448;2023-05-29T07:42:17;100925.19;;;21.59;51.00
37238;BME280;23129;49.662;8.448;2023-05-29T07:44:46;100918.84;;;22.40;49.62
37238;BME280;23129;49.662;8.448;2023-05-29T07:47:18;100923.25;;;23.16;48.44
37238;BME280;23129;49.662;8.448;2023-05-29T07:49:48;100926.63;;;23.79;47.59
37238;BME280;23129;49.662;8.448;2023-05-29T07:52:18;100926.09;;;24.44;46.46
37238;BME280;23129;49.662;8.448;2023-05-29T07:54:48;100921.69;;;24.99;45.29
37238;BME280;23129;49.662;8.448;2023-05-29T07:57:24;100914.78;;;25.40;44.57
37238;BME280;23129;49.662;8.448;2023-05-29T07:59:55;100918.44;;;25.71;43.85
37238;BME280;23129;49.662;8.448;2023-05-29T08:02:26;100921.25;;;26.02;43.15
37238;BME280;23129;49.662;8.448;2023-05-29T08:05:19;100917.00;;;26.21;42.80
37238;BME280;23129;49.662;8.448;2023-05-29T08:07:49;100923.59;;;26.37;42.39
37238;BME280;23129;49.662;8.448;2023-05-29T08:10:18;100915.38;;;26.60;41.90
37238;BME280;23129;49.662;8.448;2023-05-29T08:12:48;100914.91;;;26.85;41.60
37238;BME280;23129;49.662;8.448;2023-05-29T08:15:19;100916.66;;;27.06;41.05
37238;BME280;23129;49.662;8.448;2023-05-29T08:17:48;100920.50;;;27.13;40.69
37238;BME280;23129;49.662;8.448;2023-05-29T08:20:16;100919.28;;;27.17;40.32
37238;BME280;23129;49.662;8.448;2023-05-29T08:22:46;100927.25;;;27.28;39.91
37238;BME280;23129;49.662;8.448;2023-05-29T08:25:14;100923.28;;;27.42;39.72
37238;BME280;23129;49.662;8.448;2023-05-29T08:27:43;100919.06;;;27.59;39.26
37238;BME280;23129;49.662;8.448;2023-05-29T08:30:14;100919.06;;;27.59;39.18
37238;BME280;23129;49.662;8.448;2023-05-29T08:32:43;100921.31;;;27.54;38.93
37238;BME280;23129;49.662;8.448;2023-05-29T08:35:13;100918.47;;;27.65;38.63
37238;BME280;23129;49.662;8.448;2023-05-29T08:37:42;100908.28;;;27.79;38.41
37238;BME280;23129;49.662;8.448;2023-05-29T08:40:11;100907.97;;;28.01;38.04
37238;BME280;23129;49.662;8.448;2023-05-29T08:42:45;100905.97;;;28.13;37.76
37238;BME280;23129;49.662;8.448;2023-05-29T08:45:16;100906.31;;;28.47;37.45
37238;BME280;23129;49.662;8.448;2023-05-29T08:47:51;100918.44;;;28.23;37.42
37238;BME280;23129;49.662;8.448;2023-05-29T08:50:21;100915.31;;;28.28;37.04
37238;BME280;23129;49.662;8.448;2023-05-29T08:52:50;100916.81;;;28.40;36.52
37238;BME280;23129;49.662;8.448;2023-05-29T08:55:19;100907.63;;;28.43;36.02
37238;BME280;23129;49.662;8.448;2023-05-29T08:57:48;100910.16;;;28.44;35.98
37238;BME280;23129;49.662;8.448;2023-05-29T09:00:20;100912.13;;;28.52;35.71
37238;BME280;23129;49.662;8.448;2023-05-29T09:02:49;100912.34;;;28.68;35.18
37238;BME280;23129;49.662;8.448;2023-05-29T09:05:20;100907.03;;;28.77;34.99
37238;BME280;23129;49.662;8.448;2023-05-29T09:07:49;100906.34;;;28.75;34.56
37238;BME280;23129;49.662;8.448;2023-05-29T09:10:18;100903.16;;;28.89;34.14
37238;BME280;23129;49.662;8.448;2023-05-29T09:12:47;100900.75;;;29.13;33.53
37238;BME280;23129;49.662;8.448;2023-05-29T09:15:20;100905.72;;;29.36;33.16
37238;BME280;23129;49.662;8.448;2023-05-29T09:17:53;100902.84;;;29.55;33.02
37238;BME280;23129;49.662;8.448;2023-05-29T09:20:24;100897.94;;;29.69;32.94
37238;BME280;23129;49.662;8.448;2023-05-29T09:22:54;100897.81;;;29.96;32.26
37238;BME280;23129;49.662;8.448;2023-05-29T09:25:24;100888.94;;;30.30;31.67
37238;BME280;23129;49.662;8.448;2023-05-29T09:27:57;100897.16;;;30.46;31.68
37238;BME280;23129;49.662;8.448;2023-05-29T09:30:37;100892.84;;;30.62;31.34
37238;BME280;23129;49.662;8.448;2023-05-29T09:33:08;100901.81;;;30.62;31.47
37238;BME280;23129;49.662;8.448;2023-05-29T09:35:38;100899.28;;;30.61;31.10
37238;BME280;23129;49.662;8.448;2023-05-29T09:38:08;100904.00;;;30.59;31.41
37238;BME280;23129;49.662;8.448;2023-05-29T09:40:40;100897.91;;;30.65;31.10
37238;BME280;23129;49.662;8.448;2023-05-29T09:43:11;100891.97;;;30.87;30.59
37238;BME280;23129;49.662;8.448;2023-05-29T09:45:42;100895.59;;;31.12;30.36
37238;BME280;23129;49.662;8.448;2023-05-29T09:48:14;100906.28;;;31.22;30.47
37238;BME280;23129;49.662;8.448;2023-05-29T09:50:43;100905.94;;;31.25;29.95
37238;BME280;23129;49.662;8.448;2023-05-29T09:53:19;100904.31;;;31.49;29.63
37238;BME280;23129;49.662;8.448;2023-05-29T09:55:49;100903.63;;;31.55;29.87
37238;BME280;23129;49.662;8.448;2023-05-29T09:58:18;100893.81;;;31.54;29.69
37238;BME280;23129;49.662;8.448;2023-05-29T10:00:50;100900.59;;;31.42;29.94
37238;BME280;23129;49.662;8.448;2023-05-29T10:03:19;100887.72;;;31.60;29.44
37238;BME280;23129;49.662;8.448;2023-05-29T10:05:51;100897.53;;;31.69;29.37
37238;BME280;23129;49.662;8.448;2023-05-29T10:08:21;100898.75;;;31.83;29.10
37238;BME280;23129;49.662;8.448;2023-05-29T10:10:59;100890.09;;;32.04;28.94
37238;BME280;23129;49.662;8.448;2023-05-29T10:13:29;100873.28;;;32.17;28.77
37238;BME280;23129;49.662;8.448;2023-05-29T10:16:01;100886.00;;;32.16;28.81
37238;BME280;23129;49.662;8.448;2023-05-29T10:18:36;100883.59;;;32.29;28.36
37238;BME280;23129;49.662;8.448;2023-05-29T10:21:07;100888.31;;;32.36;28.13
37238;BME280;23129;49.662;8.448;2023-05-29T10:23:38;100874.72;;;32.52;27.84
37238;BME280;23129;49.662;8.448;2023-05-29T10:26:12;100877.09;;;32.39;28.14
37238;BME280;23129;49.662;8.448;2023-05-29T10:28:46;100877.44;;;32.36;28.07
37238;BME280;23129;49.662;8.448;2023-05-29T10:31:24;100883.06;;;32.34;27.98
37238;BME280;23129;49.662;8.448;2023-05-29T10:34:07;100877.38;;;32.60;27.91
37238;BME280;23129;49.662;8.448;2023-05-29T10:36:42;100871.00;;;32.84;27.25
37238;BME280;23129;49.662;8.448;2023-05-29T10:39:13;100866.56;;;32.91;27.31
37238;BME280;23129;49.662;8.448;2023-05-29T10:41:41;100871.00;;;32.84;27.41
37238;BME280;23129;49.662;8.448;2023-05-29T10:44:38;100870.78;;;32.94;27.14
37238;BME280;23129;49.662;8.448;2023-05-29T10:47:11;100874.88;;;32.90;27.25
37238;BME280;23129;49.662;8.448;2023-05-29T10:49:49;100873.84;;;32.99;26.62
37238;BME280;23129;49.662;8.448;2023-05-29T10:52:19;100863.34;;;33.19;26.58
37238;BME280;23129;49.662;8.448;2023-05-29T10:54:54;100861.56;;;33.57;26.17
37238;BME280;23129;49.662;8.448;2023-05-29T10:57:24;100871.56;;;33.80;25.93
37238;BME280;23129;49.662;8.448;2023-05-29T11:00:09;100867.28;;;34.00;25.68
37238;BME280;23129;49.662;8.448;2023-05-29T11:02:41;100872.22;;;34.20;25.33
37238;BME280;23129;49.662;8.448;2023-05-29T11:05:21;100860.84;;;34.61;25.13
37238;BME280;23129;49.662;8.448;2023-05-29T11:07:56;100863.50;;;34.90;25.04
37238;BME280;23129;49.662;8.448;2023-05-29T11:10:55;100863.44;;;35.20;24.45
37238;BME280;23129;49.662;8.448;2023-05-29T11:13:26;100861.38;;;35.22;24.34
37238;BME280;23129;49.662;8.448;2023-05-29T11:16:13;100872.03;;;35.02;24.50
37238;BME280;23129;49.662;8.448;2023-05-29T11:18:45;100867.06;;;34.91;24.50
37238;BME280;23129;49.662;8.448;2023-05-29T11:21:31;100870.53;;;34.99;24.44
37238;BME280;23129;49.662;8.448;2023-05-29T11:24:02;100865.59;;;34.88;23.93
37238;BME280;23129;49.662;8.448;2023-05-29T11:26:37;100873.22;;;34.78;24.32
37238;BME280;23129;49.662;8.448;2023-05-29T11:29:06;100872.47;;;34.84;23.94
37238;BME280;23129;49.662;8.448;2023-05-29T11:31:40;100854.31;;;34.91;23.43
37238;BME280;23129;49.662;8.448;2023-05-29T11:34:15;100858.53;;;34.79;23.61
37238;BME280;23129;49.662;8.448;2023-05-29T11:36:44;100862.41;;;34.70;23.51
37238;BME280;23129;49.662;8.448;2023-05-29T11:39:16;100861.50;;;34.63;23.42
37238;BME280;23129;49.662;8.448;2023-05-29T11:41:44;100869.50;;;34.64;23.60
37238;BME280;23129;49.662;8.448;2023-05-29T11:44:14;100869.72;;;34.84;23.25
37238;BME280;23129;49.662;8.448;2023-05-29T11:46:42;100858.78;;;35.14;23.25
37238;BME280;23129;49.662;8.448;2023-05-29T11:49:12;100846.31;;;35.26;22.98
37238;BME280;23129;49.662;8.448;2023-05-29T11:51:42;100853.91;;;35.31;22.78
37238;BME280;23129;49.662;8.448;2023-05-29T11:54:12;100868.00;;;35.34;22.85
37238;BME280;23129;49.662;8.448;2023-05-29T11:56:41;100857.47;;;35.53;22.51
37238;BME280;23129;49.662;8.448;2023-05-29T11:59:12;100866.22;;;35.91;22.12
37238;BME280;23129;49.662;8.448;2023-05-29T12:01:41;100865.06;;;36.07;21.95
37238;BME280;23129;49.662;8.448;2023-05-29T12:04:16;100862.66;;;36.25;21.99
37238;BME280;23129;49.662;8.448;2023-05-29T12:06:44;100857.31;;;36.45;21.59
37238;BME280;23129;49.662;8.448;2023-05-29T12:09:25;100843.53;;;36.60;21.86
37238;BME280;23129;49.662;8.448;2023-05-29T12:12:00;100850.91;;;36.60;21.40
37238;BME280;23129;49.662;8.448;2023-05-29T12:14:29;100851.09;;;36.58;21.37
37238;BME280;23129;49.662;8.448;2023-05-29T12:16:58;100845.63;;;36.58;21.33
37238;BME280;23129;49.662;8.448;2023-05-29T12:19:28;100844.72;;;36.51;21.46
37238;BME280;23129;49.662;8.448;2023-05-29T12:21:57;100850.66;;;36.54;21.11
37238;BME280;23129;49.662;8.448;2023-05-29T12:24:25;100839.00;;;36.81;20.89
37238;BME280;23129;49.662;8.448;2023-05-29T12:27:09;100837.78;;;37.03;20.93
37238;BME280;23129;49.662;8.448;2023-05-29T12:29:37;100831.91;;;36.99;20.91
37238;BME280;23129;49.662;8.448;2023-05-29T12:32:10;100834.78;;;36.85;21.28
37238;BME280;23129;49.662;8.448;2023-05-29T12:34:40;100846.50;;;36.65;20.79
37238;BME280;23129;49.662;8.448;2023-05-29T12:37:09;100844.81;;;36.64;21.20
37238;BME280;23129;49.662;8.448;2023-05-29T12:39:41;100839.41;;;36.84;21.04
37238;BME280;23129;49.662;8.448;2023-05-29T12:42:10;100827.72;;;37.10;20.99
37238;BME280;23129;49.662;8.448;2023-05-29T12:44:41;100832.22;;;37.58;20.31
37238;BME280;23129;49.662;8.448;2023-05-29T12:47:13;100829.44;;;38.04;20.18
37238;BME280;23129;49.662;8.448;2023-05-29T12:49:43;100834.66;;;38.19;20.09
37238;BME280;23129;49.662;8.448;2023-05-29T12:52:11;100834.03;;;38.10;19.85
37238;BME280;23129;49.662;8.448;2023-05-29T12:54:40;100828.53;;;38.24;19.70
37238;BME280;23129;49.662;8.448;2023-05-29T12:57:08;100824.69;;;38.45;19.58
37238;BME280;23129;49.662;8.448;2023-05-29T12:59:36;100820.81;;;38.66;19.44
37238;BME280;23129;49.662;8.448;2023-05-29T13:02:06;100820.22;;;38.57;19.45
37238;BME280;23129;49.662;8.448;2023-05-29T13:04:35;100830.06;;;38.65;18.99
37238;BME280;23129;49.662;8.448;2023-05-29T13:07:06;100818.38;;;38.82;19.10
37238;BME280;23129;49.662;8.448;2023-05-29T13:09:34;100821.69;;;38.59;19.54